createdAt,value
2023-04-10T00:02:25.355Z,79.19
2023-04-10T00:05:51.369Z,78.65
2023-04-10T00:08:53.771Z,78.71
2023-04-10T00:12:24.451Z,78.88
2023-04-10T00:15:26.865Z,79.36
2023-04-10T00:18:29.526Z,78.88
2023-04-10T00:21:43.508Z,78.65
2023-04-10T00:24:54.405Z,78.56
2023-04-10T00:27:56.525Z,79.15
2023-04-10T00:31:07.460Z,78.92
2023-04-10T00:34:11.842Z,78.70
2023-04-10T00:37:34.312Z,78.81
2023-04-10T00:40:58.943Z,79.02
2023-04-10T00:44:00.816Z,79.27
2023-04-10T00:47:17.761Z,79.29
2023-04-10T00:50:40.979Z,79.89
2023-04-10T00:53:49.867Z,80.56
2023-04-10T00:57:12.303Z,80.77
2023-04-10T01:00:36.024Z,80.88
2023-04-10T01:03:47.438Z,81.45
2023-04-10T01:07:10.966Z,81.81
2023-04-10T01:10:38.093Z,81.51
2023-04-10T01:14:04.981Z,81.71
2023-04-10T01:17:14.185Z,81.08
2023-04-10T01:20:40.788Z,80.83
2023-04-10T01:24:30.327Z,80.91
2023-04-10T01:28:02.544Z,81.22
2023-04-10T01:31:09.927Z,80.40
2023-04-10T01:34:19.669Z,80.57
2023-04-10T01:37:28.832Z,80.62
2023-04-10T01:40:32.236Z,80.99
2023-04-10T01:43:54.814Z,80.76
2023-04-10T01:46:58.036Z,80.33
2023-04-10T01:50:04.114Z,80.30
2023-04-10T01:53:12.395Z,80.02
2023-04-10T01:56:24.799Z,80.47
2023-04-10T01:59:27.140Z,80.23
2023-04-10T02:02:33.999Z,80.32
2023-04-10T02:06:18.708Z,80.47
2023-04-10T02:09:47.147Z,80.86
2023-04-10T02:13:06.738Z,80.94
2023-04-10T02:16:22.150Z,80.95
2023-04-10T02:19:25.339Z,80.92
2023-04-10T02:22:34.245Z,81.17
2023-04-10T02:26:05.319Z,81.15
2023-04-10T02:29:08.328Z,81.51
2023-04-10T02:32:21.639Z,81.61
2023-04-10T02:35:43.765Z,81.79
2023-04-10T02:38:48.902Z,81.88
2023-04-10T02:41:50.741Z,82.29
2023-04-10T02:44:58.784Z,82.25
2023-04-10T02:48:00.550Z,81.88
2023-04-10T02:51:05.386Z,81.66
2023-04-10T02:54:27.563Z,81.79
2023-04-10T02:57:30.143Z,82.43
2023-04-10T03:00:32.231Z,82.39
2023-04-10T03:03:44.041Z,82.38
2023-04-10T03:06:46.237Z,82.88
2023-04-10T03:10:08.635Z,82.45
2023-04-10T03:13:10.413Z,82.72
2023-04-10T03:16:41.353Z,82.86
2023-04-10T03:20:03.982Z,82.94
2023-04-10T03:23:06.816Z,83.02
2023-04-10T03:26:29.090Z,83.07
2023-04-10T03:29:40.082Z,82.81
2023-04-10T03:32:42.299Z,82.73
2023-04-10T03:35:46.516Z,83.15
2023-04-10T03:38:48.513Z,82.86
2023-04-10T03:42:04.055Z,82.51
2023-04-10T03:45:26.710Z,82.31
2023-04-10T03:48:28.587Z,82.11
2023-04-10T03:51:53.160Z,82.37
2023-04-10T03:54:57.603Z,82.82
2023-04-10T03:58:00.186Z,82.30
2023-04-10T04:01:02.435Z,83.43
2023-04-10T04:04:07.873Z,82.20
2023-04-10T04:07:09.993Z,81.79
2023-04-10T04:10:17.067Z,81.44
2023-04-10T04:13:19.069Z,81.58
2023-04-10T04:16:42.351Z,81.59
2023-04-10T04:19:47.202Z,81.68
2023-04-10T04:23:01.751Z,81.59
2023-04-10T04:26:06.651Z,81.66
2023-04-10T04:29:17.733Z,81.54
2023-04-10T04:32:42.911Z,81.62
2023-04-10T04:35:44.550Z,81.44
2023-04-10T04:38:46.295Z,81.39
2023-04-10T04:41:47.760Z,81.68
2023-04-10T04:44:49.846Z,81.70
2023-04-10T04:47:51.395Z,81.85
2023-04-10T04:50:53.191Z,81.81
2023-04-10T04:53:54.886Z,81.65
2023-04-10T04:56:56.879Z,81.63
2023-04-10T04:59:58.658Z,81.49
2023-04-10T05:03:01.576Z,81.43
2023-04-10T05:06:03.485Z,81.66
2023-04-10T05:09:05.212Z,81.42
2023-04-10T05:12:06.838Z,81.39
2023-04-10T05:15:08.593Z,81.36
2023-04-10T05:18:10.599Z,81.39
2023-04-10T05:21:12.263Z,81.44
2023-04-10T05:24:13.804Z,81.37
2023-04-10T05:27:15.469Z,81.49
2023-04-10T05:30:16.971Z,81.77
2023-04-10T05:33:18.597Z,81.97
2023-04-10T05:36:20.105Z,81.93
2023-04-10T05:39:21.680Z,81.98
2023-04-10T05:42:24.023Z,81.78
2023-04-10T05:45:25.663Z,81.92
2023-04-10T05:48:27.162Z,81.86
2023-04-10T05:51:28.836Z,81.83
2023-04-10T05:54:30.389Z,81.86
2023-04-10T05:57:31.954Z,81.92
2023-04-10T06:00:33.490Z,81.75
2023-04-10T06:03:35.138Z,81.85
2023-04-10T06:06:36.932Z,82.08
2023-04-10T06:09:38.431Z,82.12
2023-04-10T06:12:39.938Z,81.65
2023-04-10T06:15:41.638Z,81.50
2023-04-10T06:18:43.270Z,81.47
2023-04-10T06:21:45.109Z,81.48
2023-04-10T06:24:46.959Z,81.42
2023-04-10T06:27:48.670Z,81.54
2023-04-10T06:30:50.129Z,81.41
2023-04-10T06:33:51.672Z,81.56
2023-04-10T06:36:53.153Z,81.57
2023-04-10T06:40:02.470Z,81.54
2023-04-10T06:43:03.996Z,81.43
2023-04-10T06:46:05.737Z,81.60
2023-04-10T06:49:07.520Z,81.99
2023-04-10T06:52:09.125Z,81.72
2023-04-10T06:55:10.708Z,81.71
2023-04-10T06:58:12.292Z,81.60
2023-04-10T07:01:13.884Z,81.53
2023-04-10T07:04:15.773Z,81.75
2023-04-10T07:07:17.790Z,81.65
2023-04-10T07:10:19.379Z,81.82
2023-04-10T07:13:20.800Z,81.89
2023-04-10T07:16:22.353Z,81.73
2023-04-10T07:19:23.855Z,81.91
2023-04-10T07:22:25.486Z,81.99
2023-04-10T07:25:27.212Z,81.59
2023-04-10T07:28:28.741Z,81.51
2023-04-10T07:31:30.294Z,81.39
2023-04-10T07:34:31.878Z,81.44
2023-04-10T07:37:33.496Z,81.07
2023-04-10T07:40:35.080Z,81.31
2023-04-10T07:43:36.704Z,81.06
2023-04-10T07:46:38.212Z,81.04
2023-04-10T07:49:39.746Z,80.87
2023-04-10T07:52:41.423Z,80.97
2023-04-10T07:55:44.847Z,81.07
2023-04-10T07:58:47.121Z,80.88
2023-04-10T08:01:48.916Z,80.82
2023-04-10T08:04:50.673Z,80.89
2023-04-10T08:07:52.424Z,80.92
2023-04-10T08:10:54.017Z,80.70
2023-04-10T08:13:57.593Z,80.92
2023-04-10T08:16:59.200Z,80.68
2023-04-10T08:20:00.869Z,80.73
2023-04-10T08:23:16.492Z,80.79
2023-04-10T08:26:22.009Z,80.81
2023-04-10T08:32:30.099Z,80.53
2023-04-10T08:35:31.738Z,80.43
2023-04-10T08:38:33.361Z,80.68
2023-04-10T08:41:34.860Z,80.62
2023-04-10T08:44:36.596Z,80.68
2023-04-10T08:47:38.887Z,80.52
2023-04-10T08:50:45.686Z,80.22
2023-04-10T08:53:51.965Z,80.35
2023-04-10T08:56:55.039Z,80.40
2023-04-10T08:59:59.483Z,80.12
2023-04-10T09:03:02.384Z,80.05
2023-04-10T09:06:05.053Z,80.39
2023-04-10T09:09:07.027Z,80.21
2023-04-10T09:12:08.709Z,79.57
2023-04-10T09:15:10.546Z,79.60
2023-04-10T09:18:12.092Z,79.46
2023-04-10T09:21:18.448Z,79.69
2023-04-10T09:24:19.941Z,79.77
2023-04-10T09:27:31.863Z,79.93
2023-04-10T09:30:41.498Z,79.64
2023-04-10T09:33:43.022Z,79.71
2023-04-10T09:36:55.075Z,79.69
2023-04-10T09:39:56.903Z,79.83
2023-04-10T09:42:58.488Z,79.48
2023-04-10T09:46:00.127Z,79.33
2023-04-10T09:49:01.816Z,79.29
2023-04-10T09:52:17.936Z,79.42
2023-04-10T09:55:19.561Z,79.13
2023-04-10T09:58:21.168Z,78.64
2023-04-10T10:01:22.844Z,78.80
2023-04-10T10:04:25.414Z,78.84
2023-04-10T10:07:27.676Z,77.29
2023-04-10T10:10:29.255Z,77.69
2023-04-10T10:13:36.696Z,77.88
2023-04-10T10:16:47.420Z,77.58
2023-04-10T10:19:56.718Z,77.72
2023-04-10T10:22:58.938Z,77.73
2023-04-10T10:26:02.495Z,77.73
2023-04-10T10:29:07.762Z,77.80
2023-04-10T10:32:09.405Z,77.51
2023-04-10T10:35:11.129Z,77.10
2023-04-10T10:38:13.062Z,76.95
2023-04-10T10:41:19.469Z,75.86
2023-04-10T10:44:34.362Z,74.40
2023-04-10T10:47:42.544Z,72.10
2023-04-10T10:50:51.896Z,69.87
2023-04-10T10:53:53.649Z,68.95
2023-04-10T10:56:55.370Z,69.98
2023-04-10T10:59:57.250Z,67.63
2023-04-10T11:03:08.022Z,68.77
2023-04-10T11:06:11.586Z,69.11
2023-04-10T11:09:49.874Z,70.00
2023-04-10T11:13:17.184Z,70.88
2023-04-10T11:16:20.573Z,68.86
2023-04-10T11:19:23.552Z,70.12
2023-04-10T11:22:25.591Z,68.98
2023-04-10T11:25:53.908Z,68.95
2023-04-10T11:28:55.608Z,68.88
2023-04-10T11:32:01.355Z,67.07
2023-04-10T11:35:04.808Z,67.60
2023-04-10T11:38:10.442Z,68.96
2023-04-10T11:41:12.187Z,68.00
2023-04-10T11:44:14.510Z,69.27
2023-04-10T11:47:16.633Z,69.20
2023-04-10T11:50:18.301Z,66.92
2023-04-10T11:53:21.204Z,69.03
2023-04-10T11:56:22.882Z,68.72
2023-04-10T11:59:25.696Z,69.66
2023-04-10T12:02:27.406Z,70.71
2023-04-10T12:05:47.389Z,70.38
2023-04-10T12:08:49.100Z,69.76
2023-04-10T12:11:52.145Z,69.27
2023-04-10T12:14:53.999Z,67.44
2023-04-10T12:17:55.884Z,68.42
2023-04-10T12:20:58.121Z,69.28
2023-04-10T12:23:59.814Z,68.02
2023-04-10T12:27:01.570Z,67.13
2023-04-10T12:30:07.911Z,66.24
2023-04-10T12:33:09.398Z,65.55
2023-04-10T12:36:21.440Z,65.51
2023-04-10T12:39:24.141Z,65.31
2023-04-10T12:42:25.873Z,64.83
2023-04-10T12:45:44.041Z,63.85
2023-04-10T12:48:45.657Z,64.62
2023-04-10T12:51:51.994Z,63.74
2023-04-10T12:54:53.674Z,63.64
2023-04-10T12:57:55.249Z,63.04
2023-04-10T13:00:58.980Z,63.86
2023-04-10T13:04:00.646Z,60.95
2023-04-10T13:07:02.211Z,61.00
2023-04-10T13:10:04.724Z,60.82
2023-04-10T13:13:06.375Z,61.37
2023-04-10T13:16:08.750Z,61.73
2023-04-10T13:19:10.318Z,60.94
2023-04-10T13:22:12.052Z,59.98
2023-04-10T13:25:13.740Z,60.43
2023-04-10T13:28:15.289Z,60.19
2023-04-10T13:31:17.162Z,61.54
2023-04-10T13:34:18.797Z,63.05
2023-04-10T13:37:20.675Z,64.88
2023-04-10T13:40:22.320Z,65.63
2023-04-10T13:43:23.921Z,66.48
2023-04-10T13:46:25.837Z,67.36
2023-04-10T13:49:27.496Z,67.86
2023-04-10T13:52:29.047Z,67.79
2023-04-10T13:55:30.771Z,68.22
2023-04-10T13:58:32.720Z,67.73
2023-04-10T14:01:34.511Z,65.35
2023-04-10T14:04:36.142Z,63.47
2023-04-10T14:07:37.718Z,62.63
2023-04-10T14:10:39.273Z,64.17
2023-04-10T14:13:40.963Z,64.15
2023-04-10T14:16:42.722Z,63.05
2023-04-10T14:19:44.380Z,62.17
2023-04-10T14:22:45.953Z,61.63
2023-04-10T14:25:47.905Z,61.05
2023-04-10T14:28:49.500Z,61.60
2023-04-10T14:31:57.499Z,61.61
2023-04-10T14:35:00.116Z,62.04
2023-04-10T14:38:01.859Z,62.54
2023-04-10T14:41:03.511Z,63.27
2023-04-10T14:44:05.202Z,63.02
2023-04-10T14:47:06.993Z,63.17
2023-04-10T14:50:08.964Z,64.80
2023-04-10T14:53:10.520Z,65.63
2023-04-10T14:56:13.254Z,66.67
2023-04-10T14:59:15.781Z,66.28
2023-04-10T15:02:17.443Z,66.70
2023-04-10T15:05:19.154Z,67.12
2023-04-10T15:08:20.886Z,67.55
2023-04-10T15:11:22.438Z,68.14
2023-04-10T15:14:24.274Z,68.46
2023-04-10T15:17:25.880Z,68.83
2023-04-10T15:20:27.664Z,69.19
2023-04-10T15:23:29.531Z,69.93
2023-04-10T15:26:31.169Z,70.66
2023-04-10T15:29:38.061Z,71.74
2023-04-10T15:32:39.663Z,71.30
2023-04-10T15:35:41.474Z,70.72
2023-04-10T15:38:43.287Z,70.65
2023-04-10T15:41:44.786Z,70.88
2023-04-10T15:44:48.575Z,70.91
2023-04-10T15:47:50.557Z,71.63
2023-04-10T15:50:52.226Z,71.61
2023-04-10T15:53:54.037Z,71.76
2023-04-10T15:56:55.773Z,71.62
2023-04-10T15:59:57.304Z,71.90
2023-04-10T16:02:59.223Z,72.74
2023-04-10T16:06:00.970Z,73.32
2023-04-10T16:09:04.722Z,73.10
2023-04-10T16:12:11.214Z,72.76
2023-04-10T16:15:13.229Z,73.16
2023-04-10T16:18:15.052Z,74.24
2023-04-10T16:21:16.745Z,74.23
2023-04-10T16:24:18.527Z,74.28
2023-04-10T16:27:20.341Z,73.92
2023-04-10T16:30:22.371Z,74.01
2023-04-10T16:33:24.040Z,74.60
2023-04-10T16:36:25.641Z,76.27
2023-04-10T16:39:27.142Z,75.32
2023-04-10T16:42:28.717Z,74.83
2023-04-10T16:45:30.269Z,74.72
2023-04-10T16:48:32.636Z,74.62
2023-04-10T16:51:35.318Z,74.50
2023-04-10T16:54:36.868Z,74.31
2023-04-10T16:57:38.247Z,74.37
2023-04-10T17:00:39.994Z,74.13
2023-04-10T17:03:42.358Z,75.69
2023-04-10T17:06:43.950Z,74.30
2023-04-10T17:09:45.738Z,73.84
2023-04-10T17:12:47.408Z,73.21
2023-04-10T17:15:49.182Z,73.32
2023-04-10T17:18:50.930Z,73.21
2023-04-10T17:21:52.688Z,73.36
2023-04-10T17:24:54.280Z,73.62
2023-04-10T17:27:56.959Z,73.89
2023-04-10T17:30:58.689Z,74.11
2023-04-10T17:34:00.302Z,74.38
2023-04-10T17:37:02.488Z,74.32
2023-04-10T17:40:04.626Z,74.39
2023-04-10T17:43:06.457Z,74.46
2023-04-10T17:46:13.120Z,74.71
2023-04-10T17:49:14.756Z,74.64
2023-04-10T17:52:16.339Z,74.58
2023-04-10T17:55:18.144Z,74.93
2023-04-10T17:58:22.323Z,75.09
2023-04-10T18:01:24.300Z,75.33
2023-04-10T18:04:26.106Z,75.59
2023-04-10T18:07:28.988Z,75.32
2023-04-10T18:10:30.616Z,75.42
2023-04-10T18:13:33.738Z,75.63
2023-04-10T18:16:35.532Z,75.86
2023-04-10T18:19:37.263Z,75.80
2023-04-10T18:22:39.055Z,75.77
2023-04-10T18:25:40.721Z,75.93
2023-04-10T18:28:42.424Z,75.82
2023-04-10T18:31:44.127Z,75.87
2023-04-10T18:34:45.921Z,75.97
2023-04-10T18:37:47.528Z,76.19
2023-04-10T18:40:49.029Z,76.31
2023-04-10T18:44:01.625Z,76.53
2023-04-10T18:47:07.081Z,76.67
2023-04-10T18:50:09.161Z,77.12
2023-04-10T18:53:10.964Z,76.92
2023-04-10T18:56:12.686Z,76.77
2023-04-10T18:59:14.373Z,76.69
2023-04-10T19:02:16.265Z,77.04
2023-04-10T19:05:18.188Z,77.10
2023-04-10T19:08:21.028Z,76.97
2023-04-10T19:11:22.775Z,76.78
2023-04-10T19:14:24.225Z,76.80
2023-04-10T19:17:25.971Z,76.81
2023-04-10T19:20:52.650Z,76.68
2023-04-10T19:23:49.259Z,76.70
2023-04-10T19:26:53.591Z,77.01
2023-04-10T19:29:56.281Z,77.15
2023-04-10T19:32:57.832Z,77.26
2023-04-10T19:35:59.586Z,77.48
2023-04-10T19:39:01.436Z,77.46
2023-04-10T19:42:03.393Z,77.58
2023-04-10T19:45:05.794Z,77.45
2023-04-10T19:48:07.434Z,77.16
2023-04-10T19:51:08.940Z,77.04
2023-04-10T19:54:10.821Z,77.05
2023-04-10T19:57:12.445Z,77.25
2023-04-10T20:00:14.366Z,77.34
2023-04-10T20:03:16.225Z,77.62
2023-04-10T20:06:18.130Z,77.56
2023-04-10T20:09:20.164Z,77.63
2023-04-10T20:12:21.799Z,77.64
2023-04-10T20:15:23.436Z,77.97
2023-04-10T20:18:25.053Z,78.10
2023-04-10T20:21:26.677Z,78.39
2023-04-10T20:24:28.311Z,78.43
2023-04-10T20:27:30.212Z,78.51
2023-04-10T20:30:32.053Z,78.02
2023-04-10T20:33:35.140Z,78.03
2023-04-10T20:36:36.996Z,78.08
2023-04-10T20:39:38.599Z,78.12
2023-04-10T20:42:43.012Z,78.00
2023-04-10T20:45:44.588Z,77.83
2023-04-10T20:48:46.096Z,77.73
2023-04-10T20:51:47.608Z,77.85
2023-04-10T20:54:49.363Z,77.90
2023-04-10T20:57:51.186Z,77.91
2023-04-10T21:00:53.561Z,78.25
2023-04-10T21:03:55.790Z,78.47
2023-04-10T21:06:57.406Z,78.92
2023-04-10T21:09:58.827Z,78.63
2023-04-10T21:13:02.338Z,78.59
2023-04-10T21:16:04.383Z,78.31
2023-04-10T21:19:05.910Z,78.87
2023-04-10T21:22:07.583Z,78.15
2023-04-10T21:25:09.441Z,77.99
2023-04-10T21:28:10.934Z,78.21
2023-04-10T21:31:12.436Z,78.50
2023-04-10T21:34:14.009Z,79.53
2023-04-10T21:37:15.516Z,78.89
2023-04-10T21:40:17.048Z,78.64
2023-04-10T21:43:19.846Z,77.56
2023-04-10T21:46:21.608Z,77.53
2023-04-10T21:49:23.193Z,78.06
2023-04-10T21:52:24.884Z,78.27
2023-04-10T21:55:26.341Z,78.27
2023-04-10T21:58:27.879Z,78.59
2023-04-10T22:01:29.470Z,78.32
2023-04-10T22:04:31.894Z,78.50
2023-04-10T22:07:34.647Z,78.67
2023-04-10T22:10:36.194Z,79.30
2023-04-10T22:13:37.738Z,79.43
2023-04-10T22:16:39.441Z,79.20
2023-04-10T22:19:40.920Z,78.86
2023-04-10T22:22:42.443Z,79.21
2023-04-10T22:25:44.065Z,78.96
2023-04-10T22:28:45.898Z,78.98
2023-04-10T22:31:47.531Z,79.29
2023-04-10T22:34:48.942Z,79.19
2023-04-10T22:37:50.996Z,79.31
2023-04-10T22:40:58.636Z,79.57
2023-04-10T22:44:00.295Z,79.53
2023-04-10T22:47:01.791Z,79.59
2023-04-10T22:50:03.575Z,80.29
2023-04-10T22:53:05.250Z,80.16
2023-04-10T22:56:07.344Z,79.58
2023-04-10T22:59:09.318Z,79.57
2023-04-10T23:02:11.055Z,79.91
2023-04-10T23:05:12.797Z,79.87
2023-04-10T23:08:14.367Z,79.96
2023-04-10T23:11:15.897Z,81.05
2023-04-10T23:14:17.498Z,80.97
2023-04-10T23:17:19.937Z,80.71
2023-04-10T23:20:21.503Z,80.33
2023-04-10T23:23:23.033Z,80.21
2023-04-10T23:26:24.651Z,79.57
2023-04-10T23:29:26.167Z,79.59
2023-04-10T23:32:27.844Z,79.43
2023-04-10T23:35:29.562Z,79.58
2023-04-10T23:38:31.062Z,79.93
2023-04-10T23:41:33.236Z,80.09
2023-04-10T23:44:34.791Z,79.75
2023-04-10T23:47:36.340Z,79.78
2023-04-10T23:50:38.164Z,79.57
2023-04-10T23:53:39.629Z,79.71
2023-04-10T23:56:41.321Z,79.91
2023-04-10T23:59:43.329Z,80.36
